createdAt,value
2023-02-08T00:00:43.428Z,0.66
2023-02-08T00:02:47.616Z,0.68
2023-02-08T00:04:50.417Z,0.67
2023-02-08T00:06:53.232Z,0.66
2023-02-08T00:08:55.965Z,0.59
2023-02-08T00:10:58.919Z,0.60
2023-02-08T00:13:01.896Z,0.59
2023-02-08T00:15:05.146Z,0.60
2023-02-08T00:17:07.953Z,0.62
2023-02-08T00:19:12.104Z,0.61
2023-02-08T00:21:17.177Z,0.59
2023-02-08T00:23:20.333Z,0.55
2023-02-08T00:25:23.152Z,0.52
2023-02-08T00:27:25.974Z,0.51
2023-02-08T00:29:28.825Z,0.50
2023-02-08T00:31:31.745Z,0.54
2023-02-08T00:33:34.980Z,0.50
2023-02-08T00:35:40.976Z,0.46
2023-02-08T00:37:43.838Z,0.45
2023-02-08T00:39:46.617Z,0.40
2023-02-08T00:41:49.417Z,0.40
2023-02-08T00:43:52.218Z,0.40
2023-02-08T00:45:56.454Z,0.35
2023-02-08T00:48:00.802Z,0.30
2023-02-08T00:50:03.613Z,0.33
2023-02-08T00:52:07.871Z,0.39
2023-02-08T00:54:15.304Z,0.40
2023-02-08T00:56:18.177Z,0.36
2023-02-08T00:58:21.082Z,0.32
2023-02-08T01:00:24.085Z,0.31
2023-02-08T01:02:27.916Z,0.34
2023-02-08T01:04:30.734Z,0.28
2023-02-08T01:06:33.924Z,0.25
2023-02-08T01:08:38.339Z,0.24
2023-02-08T01:10:41.498Z,0.27
2023-02-08T01:12:44.533Z,0.30
2023-02-08T01:14:47.339Z,0.31
2023-02-08T01:16:50.266Z,0.28
2023-02-08T01:18:55.132Z,0.26
2023-02-08T01:21:03.939Z,0.23
2023-02-08T01:23:06.683Z,0.20
2023-02-08T01:25:11.180Z,0.16
2023-02-08T01:27:13.945Z,0.13
2023-02-08T01:29:16.862Z,0.07
2023-02-08T01:31:22.038Z,0.07
2023-02-08T01:33:25.069Z,0.04
2023-02-08T01:35:27.812Z,-0.03
2023-02-08T01:37:30.641Z,-0.05
2023-02-08T01:39:33.543Z,-0.06
2023-02-08T01:41:40.277Z,-0.05
2023-02-08T01:44:03.019Z,-0.03
2023-02-08T01:46:07.497Z,-0.06
2023-02-08T01:48:17.334Z,-0.02
2023-02-08T01:50:24.918Z,-0.04
2023-02-08T01:52:30.042Z,-0.04
2023-02-08T01:54:47.201Z,-0.08
2023-02-08T01:56:51.887Z,-0.12
2023-02-08T01:58:57.429Z,-0.14
2023-02-08T02:01:01.282Z,-0.10
2023-02-08T02:03:05.691Z,-0.01
2023-02-08T02:05:09.881Z,-0.02
2023-02-08T02:07:14.504Z,-0.03
2023-02-08T02:09:21.805Z,-0.06
2023-02-08T02:11:25.472Z,-0.06
2023-02-08T02:13:32.501Z,-0.15
2023-02-08T02:15:35.422Z,-0.14
2023-02-08T02:17:40.190Z,-0.10
2023-02-08T02:19:53.718Z,-0.02
2023-02-08T02:22:08.300Z,-0.01
2023-02-08T02:24:34.965Z,-0.04
2023-02-08T02:27:20.778Z,-0.11
2023-02-08T02:30:20.767Z,-0.12
2023-02-08T02:32:49.238Z,-0.15
2023-02-08T02:34:58.497Z,-0.13
2023-02-08T02:37:07.965Z,-0.20
2023-02-08T02:39:19.967Z,-0.20
2023-02-08T02:41:52.383Z,-0.23
2023-02-08T02:44:01.726Z,-0.21
2023-02-08T02:46:10.585Z,-0.21
2023-02-08T02:48:20.339Z,-0.19
2023-02-08T02:50:26.447Z,-0.22
2023-02-08T02:52:36.353Z,-0.21
2023-02-08T02:54:44.484Z,-0.17
2023-02-08T02:56:51.695Z,-0.27
2023-02-08T02:58:59.370Z,-0.40
2023-02-08T03:01:02.250Z,-0.43
2023-02-08T03:03:06.139Z,-0.43
2023-02-08T03:05:13.302Z,-0.30
2023-02-08T03:07:27.435Z,-0.17
2023-02-08T03:09:47.763Z,-0.19
2023-02-08T03:11:58.760Z,-0.20
2023-02-08T03:14:18.797Z,-0.14
2023-02-08T03:16:27.671Z,-0.17
2023-02-08T03:18:37.482Z,-0.10
2023-02-08T03:20:44.006Z,-0.11
2023-02-08T03:22:58.391Z,-0.09
2023-02-08T03:25:07.150Z,-0.01
2023-02-08T03:27:13.970Z,-0.01
2023-02-08T03:29:25.587Z,0.06
2023-02-08T03:31:33.945Z,0.04
2023-02-08T03:33:43.232Z,0.02
2023-02-08T03:35:57.340Z,-0.02
2023-02-08T03:38:02.811Z,0.01
2023-02-08T03:40:12.197Z,-0.03
2023-02-08T03:42:20.177Z,0.05
2023-02-08T03:44:28.266Z,-0.04
2023-02-08T03:46:35.051Z,-0.07
2023-02-08T03:48:41.658Z,-0.05
2023-02-08T03:50:50.557Z,-0.05
2023-02-08T03:52:54.696Z,-0.07
2023-02-08T03:55:03.237Z,-0.04
2023-02-08T03:57:11.366Z,-0.08
2023-02-08T03:59:19.257Z,-0.01
2023-02-08T04:01:27.968Z,-0.05
2023-02-08T04:03:33.804Z,-0.01
2023-02-08T04:05:37.655Z,0.06
2023-02-08T04:07:42.083Z,0.05
2023-02-08T04:09:45.271Z,0.01
2023-02-08T04:11:48.095Z,-0.01
2023-02-08T04:13:50.906Z,-0.09
2023-02-08T04:15:53.756Z,-0.19
2023-02-08T04:17:56.719Z,-0.26
2023-02-08T04:20:00.400Z,-0.25
2023-02-08T04:22:03.223Z,-0.25
2023-02-08T04:24:07.834Z,-0.26
2023-02-08T04:26:10.977Z,-0.24
2023-02-08T04:28:14.195Z,-0.27
2023-02-08T04:30:17.280Z,-0.31
2023-02-08T04:32:20.041Z,-0.31
2023-02-08T04:34:23.067Z,-0.32
2023-02-08T04:36:25.977Z,-0.34
2023-02-08T04:38:28.805Z,-0.42
2023-02-08T04:40:33.246Z,-0.48
2023-02-08T04:42:36.159Z,-0.54
2023-02-08T04:44:38.997Z,-0.55
2023-02-08T04:46:41.847Z,-0.55
2023-02-08T04:48:44.639Z,-0.58
2023-02-08T04:50:47.856Z,-0.56
2023-02-08T04:52:50.600Z,-0.65
2023-02-08T04:54:53.361Z,-0.62
2023-02-08T04:56:57.596Z,-0.57
2023-02-08T04:59:00.388Z,-0.53
2023-02-08T05:01:07.082Z,-0.55
2023-02-08T05:03:10.057Z,-0.60
2023-02-08T05:05:12.951Z,-0.65
2023-02-08T05:07:15.794Z,-0.75
2023-02-08T05:09:18.624Z,-0.74
2023-02-08T05:11:22.278Z,-0.74
2023-02-08T05:13:26.414Z,-0.77
2023-02-08T05:15:29.352Z,-0.79
2023-02-08T05:17:32.168Z,-0.78
2023-02-08T05:19:35.037Z,-0.75
2023-02-08T05:21:37.844Z,-0.74
2023-02-08T05:23:40.617Z,-0.68
2023-02-08T05:25:43.403Z,-0.67
2023-02-08T05:27:46.214Z,-0.60
2023-02-08T05:29:50.368Z,-0.53
2023-02-08T05:31:53.307Z,-0.55
2023-02-08T05:33:56.162Z,-0.52
2023-02-08T05:35:58.906Z,-0.44
2023-02-08T05:38:01.678Z,-0.52
2023-02-08T05:40:04.726Z,-0.54
2023-02-08T05:42:08.398Z,-0.50
2023-02-08T05:44:11.182Z,-0.45
2023-02-08T05:46:15.698Z,-0.49
2023-02-08T05:48:18.481Z,-0.58
2023-02-08T05:50:21.324Z,-0.41
2023-02-08T05:52:26.994Z,-0.57
2023-02-08T05:54:29.712Z,-0.64
2023-02-08T05:56:32.836Z,-0.65
2023-02-08T05:58:35.712Z,-0.50
2023-02-08T06:00:38.615Z,-0.44
2023-02-08T06:02:42.853Z,-0.61
2023-02-08T06:04:46.030Z,-0.66
2023-02-08T06:06:48.775Z,-0.69
2023-02-08T06:08:51.575Z,-0.67
2023-02-08T06:10:54.502Z,-0.72
2023-02-08T06:12:57.582Z,-0.74
2023-02-08T06:15:00.339Z,-0.74
2023-02-08T06:17:03.193Z,-0.76
2023-02-08T06:19:07.385Z,-0.80
2023-02-08T06:21:10.594Z,-0.82
2023-02-08T06:23:13.392Z,-0.81
2023-02-08T06:25:16.389Z,-0.81
2023-02-08T06:27:19.213Z,-0.79
2023-02-08T06:29:21.938Z,-0.77
2023-02-08T06:31:24.744Z,-0.77
2023-02-08T06:33:27.591Z,-0.82
2023-02-08T06:35:32.202Z,-0.83
2023-02-08T06:37:35.191Z,-0.84
2023-02-08T06:39:38.010Z,-0.89
2023-02-08T06:41:40.876Z,-0.88
2023-02-08T06:43:43.644Z,-0.88
2023-02-08T06:45:47.378Z,-0.88
2023-02-08T06:47:50.179Z,-0.87
2023-02-08T06:49:53.466Z,-0.91
2023-02-08T06:51:57.708Z,-0.86
2023-02-08T06:54:00.440Z,-0.86
2023-02-08T06:56:03.198Z,-0.90
2023-02-08T06:58:06.042Z,-0.85
2023-02-08T07:00:10.274Z,-0.81
2023-02-08T07:02:14.616Z,-0.82
2023-02-08T07:04:17.439Z,-0.84
2023-02-08T07:06:21.234Z,-0.85
2023-02-08T07:08:25.329Z,-0.81
2023-02-08T07:10:28.342Z,-0.83
2023-02-08T07:12:34.128Z,-0.86
2023-02-08T07:14:39.673Z,-0.90
2023-02-08T07:16:42.961Z,-0.88
2023-02-08T07:18:46.004Z,-0.89
2023-02-08T07:20:49.584Z,-0.84
2023-02-08T07:22:52.392Z,-0.85
2023-02-08T07:24:56.534Z,-0.81
2023-02-08T07:26:59.261Z,-0.81
2023-02-08T07:29:02.066Z,-0.82
2023-02-08T07:31:07.019Z,-0.79
2023-02-08T07:33:09.850Z,-0.77
2023-02-08T07:35:12.632Z,-0.82
2023-02-08T07:37:15.473Z,-0.80
2023-02-08T07:39:18.258Z,-0.76
2023-02-08T07:41:22.433Z,-0.68
2023-02-08T07:43:27.263Z,-0.67
2023-02-08T07:45:34.967Z,-0.64
2023-02-08T07:47:37.834Z,-0.64
2023-02-08T07:49:40.612Z,-0.61
2023-02-08T07:51:43.476Z,-0.61
2023-02-08T07:53:46.289Z,-0.58
2023-02-08T07:55:49.053Z,-0.55
2023-02-08T07:57:53.216Z,-0.51
2023-02-08T07:59:56.016Z,-0.48
2023-02-08T08:01:58.878Z,-0.44
2023-02-08T08:04:01.727Z,-0.38
2023-02-08T08:06:04.838Z,-0.34
2023-02-08T08:08:07.700Z,-0.32
2023-02-08T08:10:10.759Z,-0.30
2023-02-08T08:12:13.558Z,-0.28
2023-02-08T08:14:17.678Z,-0.45
2023-02-08T08:16:21.374Z,-0.55
2023-02-08T08:18:24.301Z,-0.48
2023-02-08T08:20:27.396Z,-0.53
2023-02-08T08:22:30.178Z,-0.52
2023-02-08T08:24:35.539Z,-0.57
2023-02-08T08:26:38.325Z,-0.65
2023-02-08T08:28:41.665Z,-0.66
2023-02-08T08:30:46.395Z,-0.60
2023-02-08T08:32:49.288Z,-0.66
2023-02-08T08:34:52.115Z,-0.58
2023-02-08T08:36:54.997Z,-0.50
2023-02-08T08:38:57.816Z,-0.52
2023-02-08T08:41:00.585Z,-0.47
2023-02-08T08:43:03.450Z,-0.34
2023-02-08T08:45:07.528Z,-0.23
2023-02-08T08:47:12.465Z,-0.19
2023-02-08T08:49:15.314Z,-0.06
2023-02-08T08:51:18.322Z,-0.05
2023-02-08T08:53:22.035Z,0.03
2023-02-08T08:55:25.900Z,0.08
2023-02-08T08:57:28.705Z,0.17
2023-02-08T08:59:31.606Z,0.23
2023-02-08T09:01:35.101Z,0.41
2023-02-08T09:03:39.356Z,0.49
2023-02-08T09:05:44.671Z,0.50
2023-02-08T09:07:47.468Z,0.53
2023-02-08T09:09:50.270Z,0.59
2023-02-08T09:11:53.032Z,0.62
2023-02-08T09:13:56.290Z,0.71
2023-02-08T09:15:59.154Z,0.80
2023-02-08T09:18:01.893Z,0.85
2023-02-08T09:20:07.055Z,0.95
2023-02-08T09:22:09.972Z,1.21
2023-02-08T09:24:13.105Z,1.15
2023-02-08T09:26:17.883Z,1.17
2023-02-08T09:28:20.758Z,1.20
2023-02-08T09:30:23.802Z,1.30
2023-02-08T09:32:26.544Z,1.40
2023-02-08T09:34:29.482Z,1.50
2023-02-08T09:36:37.088Z,1.71
2023-02-08T09:38:40.562Z,1.81
2023-02-08T09:40:50.047Z,1.74
2023-02-08T09:43:04.543Z,1.73
2023-02-08T09:45:36.813Z,1.80
2023-02-08T09:47:45.195Z,2.05
2023-02-08T09:49:58.836Z,1.98
2023-02-08T09:52:06.142Z,2.03
2023-02-08T09:54:13.333Z,2.12
2023-02-08T09:56:20.314Z,2.27
2023-02-08T09:58:28.398Z,2.38
2023-02-08T10:00:35.992Z,2.44
2023-02-08T10:02:40.473Z,2.38
2023-02-08T10:04:56.838Z,2.43
2023-02-08T10:06:59.655Z,2.48
2023-02-08T10:09:06.602Z,2.62
2023-02-08T10:11:35.673Z,2.67
2023-02-08T10:14:02.712Z,2.82
2023-02-08T10:16:19.371Z,2.83
2023-02-08T10:18:38.091Z,2.77
2023-02-08T10:20:56.646Z,2.84
2023-02-08T10:23:09.439Z,2.86
2023-02-08T10:25:26.468Z,2.90
2023-02-08T10:27:41.006Z,3.08
2023-02-08T10:30:08.661Z,3.11
2023-02-08T10:32:28.573Z,3.23
2023-02-08T10:34:41.602Z,3.23
2023-02-08T10:36:44.735Z,3.31
2023-02-08T10:38:50.722Z,3.35
2023-02-08T10:40:58.468Z,3.34
2023-02-08T10:43:18.306Z,3.46
2023-02-08T10:45:28.054Z,3.64
2023-02-08T10:47:44.485Z,3.65
2023-02-08T10:49:54.416Z,3.64
2023-02-08T10:51:57.218Z,3.65
2023-02-08T10:54:00.020Z,3.78
2023-02-08T10:56:05.653Z,3.73
2023-02-08T10:58:10.921Z,3.82
2023-02-08T11:00:20.730Z,4.01
2023-02-08T11:02:26.438Z,3.97
2023-02-08T11:04:29.474Z,3.90
2023-02-08T11:06:32.630Z,3.90
2023-02-08T11:08:55.793Z,4.07
2023-02-08T11:11:00.901Z,3.97
2023-02-08T11:13:08.065Z,3.97
2023-02-08T11:15:24.338Z,3.99
2023-02-08T11:17:30.560Z,3.97
2023-02-08T11:19:37.014Z,4.06
2023-02-08T11:21:42.197Z,3.97
2023-02-08T11:23:52.278Z,4.05
2023-02-08T11:25:56.501Z,4.09
2023-02-08T11:28:00.370Z,4.06
2023-02-08T11:30:23.578Z,4.22
2023-02-08T11:32:26.535Z,4.21
2023-02-08T11:34:32.689Z,4.23
2023-02-08T11:36:36.801Z,4.39
2023-02-08T11:38:43.516Z,4.38
2023-02-08T11:40:46.907Z,4.59
2023-02-08T11:42:50.688Z,4.37
2023-02-08T11:44:55.524Z,4.31
2023-02-08T11:47:02.649Z,4.43
2023-02-08T11:49:05.723Z,4.62
2023-02-08T11:51:08.820Z,4.86
2023-02-08T11:53:27.606Z,4.52
2023-02-08T11:55:34.014Z,4.57
2023-02-08T11:57:36.785Z,4.52
2023-02-08T11:59:39.628Z,4.60
2023-02-08T12:01:43.581Z,4.71
2023-02-08T12:03:50.708Z,4.72
2023-02-08T12:06:04.175Z,4.38
2023-02-08T12:08:17.625Z,4.54
2023-02-08T12:10:48.160Z,4.59
2023-02-08T12:13:28.426Z,4.70
2023-02-08T12:15:57.510Z,4.75
2023-02-08T12:18:20.143Z,4.78
2023-02-08T12:20:38.446Z,4.67
2023-02-08T12:22:48.449Z,4.69
2023-02-08T12:24:55.783Z,4.80
2023-02-08T12:27:11.247Z,4.78
2023-02-08T12:29:19.978Z,4.79
2023-02-08T12:31:35.283Z,4.83
2023-02-08T12:33:51.240Z,4.80
2023-02-08T12:36:24.329Z,4.68
2023-02-08T12:38:57.673Z,4.54
2023-02-08T12:41:10.171Z,4.62
2023-02-08T12:43:25.051Z,4.70
2023-02-08T12:45:55.979Z,4.72
2023-02-08T12:48:10.658Z,4.73
2023-02-08T12:50:24.477Z,4.71
2023-02-08T12:52:37.128Z,4.61
2023-02-08T12:54:43.891Z,4.49
2023-02-08T12:57:01.534Z,4.59
2023-02-08T12:59:13.605Z,4.58
2023-02-08T13:01:20.242Z,4.72
2023-02-08T13:03:34.296Z,4.50
2023-02-08T13:05:53.479Z,4.64
2023-02-08T13:08:16.737Z,4.74
2023-02-08T13:10:26.569Z,4.71
2023-02-08T13:12:33.468Z,4.77
2023-02-08T13:14:41.751Z,4.83
2023-02-08T13:16:49.930Z,4.77
2023-02-08T13:18:56.161Z,4.71
2023-02-08T13:21:02.981Z,4.79
2023-02-08T13:23:16.438Z,4.90
2023-02-08T13:25:28.717Z,4.88
2023-02-08T13:27:31.494Z,4.92
2023-02-08T13:29:34.993Z,4.84
2023-02-08T13:31:42.124Z,4.88
2023-02-08T13:34:00.984Z,4.84
2023-02-08T13:36:05.077Z,4.88
2023-02-08T13:38:21.942Z,4.99
2023-02-08T13:40:28.883Z,4.92
2023-02-08T13:42:36.987Z,4.98
2023-02-08T13:44:41.723Z,4.97
2023-02-08T13:46:47.134Z,4.97
2023-02-08T13:48:53.044Z,5.00
2023-02-08T13:50:57.087Z,4.97
2023-02-08T13:52:59.948Z,4.84
2023-02-08T13:55:41.370Z,5.11
2023-02-08T13:57:54.018Z,5.14
2023-02-08T14:00:22.698Z,4.85
2023-02-08T14:02:30.582Z,4.86
2023-02-08T14:04:36.317Z,4.99
2023-02-08T14:06:48.598Z,5.07
2023-02-08T14:08:57.570Z,5.09
2023-02-08T14:11:11.336Z,5.10
2023-02-08T14:13:28.467Z,5.00
2023-02-08T14:15:34.472Z,5.11
2023-02-08T14:17:37.644Z,5.19
2023-02-08T14:19:43.513Z,5.06
2023-02-08T14:21:48.709Z,5.04
2023-02-08T14:24:00.996Z,5.11
2023-02-08T14:26:10.368Z,5.18
2023-02-08T14:28:28.697Z,5.05
2023-02-08T14:30:33.525Z,5.14
2023-02-08T14:32:39.453Z,5.08
2023-02-08T14:34:44.291Z,5.12
2023-02-08T14:36:47.167Z,5.12
2023-02-08T14:39:09.576Z,5.09
2023-02-08T14:41:12.412Z,5.07
2023-02-08T14:43:43.677Z,5.15
2023-02-08T14:45:48.861Z,5.17
2023-02-08T14:47:58.841Z,5.05
2023-02-08T14:50:12.545Z,5.09
2023-02-08T14:52:22.082Z,5.10
2023-02-08T14:54:33.651Z,5.04
2023-02-08T14:56:45.314Z,5.10
2023-02-08T14:58:52.380Z,5.09
2023-02-08T15:00:57.387Z,5.10
2023-02-08T15:03:01.343Z,5.03
2023-02-08T15:05:09.853Z,5.06
2023-02-08T15:07:26.238Z,5.11
2023-02-08T15:09:31.096Z,5.05
2023-02-08T15:11:36.038Z,5.04
2023-02-08T15:13:38.770Z,4.96
2023-02-08T15:15:45.907Z,4.97
2023-02-08T15:17:51.609Z,4.99
2023-02-08T15:19:54.864Z,5.03
2023-02-08T15:22:17.675Z,4.99
2023-02-08T15:24:22.540Z,4.97
2023-02-08T15:26:25.806Z,4.84
2023-02-08T15:28:30.474Z,4.86
2023-02-08T15:30:36.463Z,4.93
2023-02-08T15:32:41.922Z,4.92
2023-02-08T15:34:46.145Z,4.87
2023-02-08T15:36:51.877Z,4.87
2023-02-08T15:38:55.097Z,4.88
2023-02-08T15:41:03.593Z,4.90
2023-02-08T15:43:14.117Z,4.90
2023-02-08T15:45:25.101Z,4.90
2023-02-08T15:47:31.683Z,4.89
2023-02-08T15:49:39.061Z,4.86
2023-02-08T15:51:42.027Z,4.86
2023-02-08T15:53:46.904Z,4.88
2023-02-08T15:55:53.747Z,4.87
2023-02-08T15:57:59.996Z,4.83
2023-02-08T16:00:05.431Z,4.84
2023-02-08T16:02:24.451Z,4.79
2023-02-08T16:04:27.363Z,4.74
2023-02-08T16:06:37.430Z,4.74
2023-02-08T16:08:43.989Z,4.70
2023-02-08T16:10:49.872Z,4.66
2023-02-08T16:12:54.799Z,4.60
2023-02-08T16:14:57.599Z,4.47
2023-02-08T16:17:00.474Z,4.42
2023-02-08T16:19:04.834Z,4.41
2023-02-08T16:21:20.600Z,4.38
2023-02-08T16:23:26.920Z,4.32
2023-02-08T16:25:37.837Z,4.26
2023-02-08T16:27:48.845Z,4.19
2023-02-08T16:29:51.700Z,4.10
2023-02-08T16:32:03.327Z,4.06
2023-02-08T16:34:08.237Z,3.98
2023-02-08T16:36:24.078Z,3.96
2023-02-08T16:38:29.699Z,3.92
2023-02-08T16:40:51.237Z,3.93
2023-02-08T16:42:54.140Z,3.92
2023-02-08T16:45:26.896Z,3.91
2023-02-08T16:47:36.854Z,3.82
2023-02-08T16:49:39.706Z,3.76
2023-02-08T16:51:44.433Z,3.75
2023-02-08T16:53:48.954Z,3.71
2023-02-08T16:55:51.718Z,3.65
2023-02-08T16:57:56.069Z,3.64
2023-02-08T17:00:00.818Z,3.59
2023-02-08T17:02:03.727Z,3.56
2023-02-08T17:04:06.969Z,3.64
2023-02-08T17:06:22.738Z,3.59
2023-02-08T17:08:25.591Z,3.58
2023-02-08T17:10:31.187Z,3.58
2023-02-08T17:12:33.936Z,3.51
2023-02-08T17:14:37.433Z,3.49
2023-02-08T17:16:41.032Z,3.51
2023-02-08T17:18:43.862Z,3.44
2023-02-08T17:20:47.913Z,3.40
2023-02-08T17:22:51.644Z,3.41
2023-02-08T17:24:54.451Z,3.42
2023-02-08T17:26:58.596Z,3.38
2023-02-08T17:29:01.370Z,3.27
2023-02-08T17:31:04.232Z,3.20
2023-02-08T17:33:08.109Z,3.21
2023-02-08T17:35:11.161Z,3.23
2023-02-08T17:37:14.026Z,3.21
2023-02-08T17:39:17.771Z,3.13
2023-02-08T17:41:21.389Z,3.20
2023-02-08T17:43:25.585Z,3.16
2023-02-08T17:45:29.627Z,3.18
2023-02-08T17:47:33.267Z,3.16
2023-02-08T17:49:36.039Z,3.26
2023-02-08T17:51:38.870Z,3.22
2023-02-08T17:53:43.642Z,3.17
2023-02-08T17:55:47.115Z,3.16
2023-02-08T17:57:50.051Z,3.24
2023-02-08T17:59:54.186Z,3.10
2023-02-08T18:01:57.095Z,3.05
2023-02-08T18:04:00.738Z,3.01
2023-02-08T18:06:05.998Z,3.01
2023-02-08T18:08:08.850Z,3.01
2023-02-08T18:10:13.761Z,3.10
2023-02-08T18:12:16.606Z,3.04
2023-02-08T18:14:20.249Z,3.04
2023-02-08T18:16:26.236Z,3.04
2023-02-08T18:18:29.089Z,3.05
2023-02-08T18:20:32.087Z,3.02
2023-02-08T18:22:35.446Z,3.03
2023-02-08T18:24:39.209Z,3.08
2023-02-08T18:26:43.120Z,3.08
2023-02-08T18:28:46.380Z,3.10
2023-02-08T18:30:49.190Z,3.16
2023-02-08T18:32:53.370Z,3.11
2023-02-08T18:34:58.479Z,3.03
2023-02-08T18:37:01.608Z,2.99
2023-02-08T18:39:05.196Z,2.95
2023-02-08T18:41:09.952Z,2.90
2023-02-08T18:43:13.312Z,2.90
2023-02-08T18:45:16.074Z,2.87
2023-02-08T18:47:18.916Z,2.89
2023-02-08T18:49:23.715Z,2.86
2023-02-08T18:51:27.941Z,2.86
2023-02-08T18:53:32.968Z,2.81
2023-02-08T18:55:35.801Z,2.77
2023-02-08T18:57:39.865Z,2.72
2023-02-08T18:59:43.504Z,2.65
2023-02-08T19:01:46.358Z,2.64
2023-02-08T19:03:49.656Z,2.59
2023-02-08T19:05:53.814Z,2.60
2023-02-08T19:07:56.605Z,2.57
2023-02-08T19:09:59.632Z,2.54
2023-02-08T19:12:02.495Z,2.49
2023-02-08T19:14:07.445Z,2.46
2023-02-08T19:16:10.293Z,2.38
2023-02-08T19:18:13.083Z,2.30
2023-02-08T19:20:16.018Z,2.29
2023-02-08T19:22:20.132Z,2.28
2023-02-08T19:24:23.027Z,2.22
2023-02-08T19:26:28.618Z,2.20
2023-02-08T19:28:33.565Z,2.23
2023-02-08T19:30:36.224Z,2.15
2023-02-08T19:32:39.009Z,2.17
2023-02-08T19:34:41.742Z,2.21
2023-02-08T19:36:49.232Z,2.25
2023-02-08T19:38:53.953Z,2.26
2023-02-08T19:40:56.795Z,2.30
2023-02-08T19:42:59.606Z,2.34
2023-02-08T19:45:02.444Z,2.32
2023-02-08T19:47:05.337Z,2.27
2023-02-08T19:49:08.274Z,2.28
2023-02-08T19:51:11.300Z,2.27
2023-02-08T19:53:15.632Z,2.19
2023-02-08T19:55:19.861Z,2.13
2023-02-08T19:57:22.648Z,1.98
2023-02-08T19:59:27.399Z,1.92
2023-02-08T20:01:30.616Z,1.88
2023-02-08T20:03:33.450Z,1.85
2023-02-08T20:05:37.068Z,1.85
2023-02-08T20:07:39.880Z,1.78
2023-02-08T20:09:42.635Z,1.79
2023-02-08T20:12:02.014Z,1.79
2023-02-08T20:14:06.199Z,1.73
2023-02-08T20:16:09.094Z,1.71
2023-02-08T20:18:13.937Z,1.72
2023-02-08T20:20:16.739Z,1.66
2023-02-08T20:22:19.657Z,1.71
2023-02-08T20:24:22.664Z,1.80
2023-02-08T20:26:27.729Z,1.81
2023-02-08T20:28:31.721Z,1.74
2023-02-08T20:30:34.528Z,1.74
2023-02-08T20:32:37.393Z,1.80
2023-02-08T20:34:47.457Z,1.82
2023-02-08T20:37:12.153Z,1.83
2023-02-08T20:39:18.011Z,1.82
2023-02-08T20:41:22.765Z,1.83
2023-02-08T20:43:25.742Z,1.90
2023-02-08T20:45:29.854Z,2.00
2023-02-08T20:47:38.725Z,1.93
2023-02-08T20:49:47.890Z,1.87
2023-02-08T20:51:52.281Z,1.85
2023-02-08T20:53:56.563Z,1.93
2023-02-08T20:55:59.342Z,1.91
2023-02-08T20:58:02.191Z,1.87
2023-02-08T21:00:05.745Z,1.86
2023-02-08T21:02:17.395Z,1.84
2023-02-08T21:04:23.267Z,1.79
2023-02-08T21:06:30.340Z,1.69
2023-02-08T21:08:33.167Z,1.58
2023-02-08T21:10:37.327Z,1.58
2023-02-08T21:12:40.201Z,1.57
2023-02-08T21:14:44.505Z,1.50
2023-02-08T21:16:48.520Z,1.49
2023-02-08T21:18:52.919Z,1.51
2023-02-08T21:20:55.941Z,1.49
2023-02-08T21:23:01.936Z,1.46
2023-02-08T21:25:09.304Z,1.45
2023-02-08T21:27:12.927Z,1.50
2023-02-08T21:29:18.782Z,1.49
2023-02-08T21:31:22.925Z,1.51
2023-02-08T21:33:26.047Z,1.43
2023-02-08T21:35:30.276Z,1.45
2023-02-08T21:37:34.434Z,1.44
2023-02-08T21:39:40.018Z,1.44
2023-02-08T21:41:45.439Z,1.46
2023-02-08T21:43:48.871Z,1.45
2023-02-08T21:45:51.695Z,1.48
2023-02-08T21:47:54.639Z,1.52
2023-02-08T21:50:15.312Z,1.60
2023-02-08T21:52:37.225Z,1.58
2023-02-08T21:54:42.793Z,1.58
2023-02-08T21:56:45.612Z,1.43
2023-02-08T21:58:48.573Z,1.39
2023-02-08T22:00:51.518Z,1.39
2023-02-08T22:02:54.369Z,1.31
2023-02-08T22:05:20.550Z,1.30
2023-02-08T22:07:26.783Z,1.20
2023-02-08T22:09:29.519Z,1.08
2023-02-08T22:11:32.365Z,1.02
2023-02-08T22:13:35.286Z,1.04
2023-02-08T22:15:39.892Z,1.06
2023-02-08T22:17:43.094Z,1.01
2023-02-08T22:19:46.206Z,1.01
2023-02-08T22:21:49.024Z,1.04
2023-02-08T22:23:53.956Z,1.08
2023-02-08T22:25:56.650Z,0.93
2023-02-08T22:27:59.473Z,0.92
2023-02-08T22:30:02.603Z,1.01
2023-02-08T22:32:07.329Z,1.14
2023-02-08T22:34:10.150Z,1.16
2023-02-08T22:36:13.708Z,1.33
2023-02-08T22:38:18.385Z,1.15
2023-02-08T22:40:25.541Z,1.14
2023-02-08T22:42:30.949Z,1.12
2023-02-08T22:44:35.367Z,1.13
2023-02-08T22:46:38.312Z,1.15
2023-02-08T22:48:41.601Z,1.21
2023-02-08T22:50:44.703Z,1.21
2023-02-08T22:52:47.740Z,1.20
2023-02-08T22:54:51.890Z,1.23
2023-02-08T22:56:56.078Z,1.23
2023-02-08T22:59:00.439Z,1.22
2023-02-08T23:01:03.354Z,1.17
2023-02-08T23:03:06.332Z,1.16
2023-02-08T23:05:09.807Z,1.24
2023-02-08T23:07:12.663Z,1.26
2023-02-08T23:09:15.518Z,1.25
2023-02-08T23:11:20.328Z,1.21
2023-02-08T23:13:24.437Z,1.19
2023-02-08T23:15:27.274Z,1.16
2023-02-08T23:17:30.027Z,1.10
2023-02-08T23:19:32.780Z,1.10
2023-02-08T23:21:35.621Z,1.07
2023-02-08T23:23:38.498Z,1.02
2023-02-08T23:25:42.354Z,1.02
2023-02-08T23:27:45.271Z,0.98
2023-02-08T23:29:49.396Z,0.95
2023-02-08T23:31:52.384Z,0.94
2023-02-08T23:33:55.564Z,0.91
2023-02-08T23:35:58.374Z,0.87
2023-02-08T23:38:01.957Z,0.83
2023-02-08T23:40:05.614Z,0.80
2023-02-08T23:42:25.450Z,0.80
2023-02-08T23:44:28.465Z,0.80
2023-02-08T23:46:33.428Z,0.82
2023-02-08T23:48:38.403Z,0.73
2023-02-08T23:50:41.997Z,0.69
2023-02-08T23:52:44.837Z,0.75
2023-02-08T23:54:47.866Z,0.78
2023-02-08T23:56:51.915Z,0.79
2023-02-08T23:58:57.315Z,0.72
